Latest Weather Observations for Maroochydore

IDQ60901

Issued at 5:11 pm EST Saturday 29 August 2015 (issued every 10 minutes, with the page automatically refreshed every 10 minutes)

About weather observations | Map of Brisbane area stations | Latest observations for Brisbane area | Other Formats
Station Details ID: 040861 Name: SUNSHINE COAST AIRPORT Lat: -26.60 Lon: 153.09 Height: 3.3 m
Data from the previous 72 hours. | See also: Recent months at Maroochydore
Date/Time
EST
Tmp

°C
App
Tmp
°C
Dew
Point
°C
Rel
Hum
%
Delta-T

°C
Wind Press
QNH
hPa
Press
MSL
hPa
Rain
since
9 am
mm
Dir
 
Spd
km/h
Gust
km/h
Spd
kts
Gust
kts
29/05:00pm 20.1 20.6 16.5 80 2.2 SE 9 13 5 7 1017.3 - 0.0
29/04:30pm 20.3 20.6 15.9 76 2.6 SE 9 11 5 6 1017.6 - 0.0
29/04:00pm 20.6 20.7 15.6 73 3.0 SE 9 13 5 7 1017.8 - 0.0
29/03:30pm 21.2 21.0 15.7 71 3.3 SE 11 15 6 8 1017.7 - 0.0
29/03:00pm 20.9 20.1 15.0 69 3.5 SE 13 15 7 8 1018.2 1018.2 0.0
29/02:30pm 20.9 20.1 15.0 69 3.5 SE 13 17 7 9 1018.7 - 0.0
29/02:00pm 21.3 20.5 15.2 68 3.6 SSE 13 17 7 9 1019.1 - 0.0
29/01:30pm 21.3 21.0 15.4 69 3.5 SE 11 17 6 9 1019.3 - 0.0
29/01:00pm 20.4 19.4 14.7 70 3.3 SSE 13 17 7 9 1020.2 - 0.0
29/12:30pm 20.9 19.9 14.5 67 3.7 SSE 13 19 7 10 1020.6 - 0.0
29/12:00pm 20.7 18.9 14.4 67 3.7 SSE 17 19 9 10 1021.1 1021.1 0.0
29/11:30am 22.1 20.3 14.5 62 4.5 SSE 17 22 9 12 1021.3 - 0.0
29/11:00am 22.3 21.0 14.7 62 4.5 SE 15 20 8 11 1021.7 - 0.0
29/10:30am 22.1 20.4 13.7 59 4.9 SE 15 20 8 11 1022.0 - 0.0
29/10:00am 22.0 20.3 13.6 59 4.9 SSE 15 20 8 11 1022.1 - 0.0
29/09:30am 21.3 19.8 13.2 60 4.6 S 13 19 7 10 1022.4 - 0.0
29/09:00am 19.7 17.9 12.2 62 4.2 S 13 19 7 10 1022.5 1022.5 0.0
29/08:30am 19.5 18.4 13.2 67 3.6 SSW 11 17 6 9 1022.4 - 0.0
29/08:00am 17.8 16.6 12.7 72 2.8 SW 11 13 6 7 1022.3 - 0.0
29/07:30am 16.1 15.2 12.5 79 2.0 SW 9 11 5 6 1022.1 - 0.0
29/07:00am 14.8 14.3 12.5 86 1.3 SW 7 9 4 5 1021.8 - 0.0
29/06:30am 13.7 13.0 11.9 89 1.0 SW 7 9 4 5 1021.8 - 0.0
29/06:12am 13.6 12.4 11.7 88 1.0 SW 9 11 5 6 1021.6 - 0.0
29/06:00am 13.7 12.1 11.7 88 1.1 WSW 11 11 6 6 1021.6 1021.6 0.0
29/05:30am 13.7 12.5 11.7 88 1.1 SW 9 11 5 6 1021.0 - 0.0
29/05:00am 14.2 13.5 12.1 87 1.1 SW 7 9 4 5 1020.9 - 0.0
29/04:30am 14.3 13.7 12.2 87 1.1 SW 7 11 4 6 1020.6 - 0.0
29/04:00am 14.8 13.9 12.7 87 1.2 SW 9 13 5 7 1020.4 - 0.0
29/03:30am 14.9 13.7 12.8 87 1.2 SW 11 15 6 8 1020.8 - 0.0
29/03:00am 14.7 13.6 13.1 90 0.9 WSW 11 15 6 8 1021.0 1021.0 0.0
29/02:30am 14.5 13.4 13.2 92 0.7 WSW 11 15 6 8 1021.2 - 0.0
29/02:00am 14.5 12.7 13.4 93 0.6 WSW 15 17 8 9 1021.5 - 0.0
29/01:30am 14.6 13.3 13.6 94 0.6 SW 13 17 7 9 1021.5 - 0.0
29/01:11am 14.6 13.3 13.6 94 0.6 SW 13 17 7 9 1021.7 - 0.0
29/01:01am 14.6 13.3 13.6 94 0.6 SW 13 17 7 9 1021.8 - 0.0
29/01:00am 14.6 13.3 13.6 94 0.6 SW 13 17 7 9 1021.8 - 0.0
29/12:30am 14.5 13.7 13.9 96 0.3 WSW 11 15 6 8 1021.7 - 0.0
29/12:00am 14.2 13.6 13.6 96 0.3 SW 9 13 5 7 1021.6 1021.6 0.0
 
Date/Time
EST
Tmp

°C
App
Tmp
°C
Dew
Point
°C
Rel
Hum
%
Delta-T

°C
Wind Press
QNH
hPa
Press
MSL
hPa
Rain
since
9 am
mm
Dir
 
Spd
km/h
Gust
km/h
Spd
kts
Gust
kts
28/11:30pm 14.1 13.5 13.5 96 0.3 WSW 9 11 5 6 1021.9 - 0.0
28/11:00pm 14.2 13.9 13.4 95 0.4 SW 7 11 4 6 1021.9 - 0.0
28/10:30pm 14.6 13.7 13.6 94 0.6 SW 11 13 6 7 1021.7 - 0.0
28/10:00pm 14.8 13.9 13.8 94 0.6 SW 11 13 6 7 1021.8 - 0.0
28/09:30pm 15.4 14.3 14.4 94 0.6 SW 13 15 7 8 1022.1 - 0.0
28/09:00pm 15.0 14.8 13.7 92 0.7 WSW 7 9 4 5 1022.1 1022.1 0.0
28/08:30pm 15.4 14.6 14.1 92 0.7 SW 11 13 6 7 1021.9 - 0.0
28/08:00pm 15.5 15.3 13.7 89 1.0 WSW 7 11 4 6 1021.6 - 0.0
28/07:30pm 16.3 15.9 14.1 87 1.2 SSW 9 11 5 6 1021.1 - 0.0
28/07:00pm 18.6 18.6 14.3 76 2.5 ESE 7 13 4 7 1020.6 - 0.0
28/06:30pm 19.0 18.5 14.9 77 2.4 ESE 11 17 6 9 1019.9 - 0.0
28/06:00pm 19.0 18.5 14.9 77 2.4 ESE 11 17 6 9 1019.6 1019.6 0.0
28/05:30pm 19.3 18.1 14.1 72 3.0 ESE 13 17 7 9 1019.2 - 0.0
28/05:00pm 19.7 18.2 14.1 70 3.2 E 15 20 8 11 1019.0 - 0.0
28/04:30pm 20.1 17.9 14.5 70 3.3 ESE 19 26 10 14 1018.8 - 0.0
28/04:00pm 21.1 18.4 13.0 60 4.6 ESE 19 22 10 12 1018.7 - 0.0
28/03:30pm 20.4 17.4 13.8 66 3.8 ESE 22 28 12 15 1018.6 - 0.0
28/03:00pm 21.0 18.4 13.9 64 4.1 ESE 20 28 11 15 1018.6 1018.6 0.0
28/02:30pm 21.8 19.0 15.4 67 3.8 SE 24 32 13 17 1018.7 - 0.0
28/02:00pm 21.6 19.4 15.0 66 3.9 SE 20 28 11 15 1018.8 - 0.0
28/01:30pm 20.6 18.1 14.0 66 3.8 ESE 20 28 11 15 1019.1 - 0.0
28/01:00pm 22.4 20.5 15.7 66 4.0 SE 20 26 11 14 1019.5 - 0.0
28/12:30pm 21.3 18.7 14.9 67 3.8 ESE 22 30 12 16 1019.8 - 0.0
28/12:00pm 22.1 20.9 16.1 69 3.6 ESE 17 22 9 12 1020.1 1020.1 0.0
28/11:30am 22.0 20.1 15.1 65 4.1 ESE 19 22 10 12 1020.7 - 0.0
28/11:00am 22.5 22.0 15.8 66 4.0 ESE 13 17 7 9 1021.3 - 0.0
28/10:30am 21.5 22.0 16.5 73 3.0 SSW 9 15 5 8 1021.8 - 0.0
28/10:00am 19.9 20.3 16.2 79 2.2 SW 9 11 5 6 1022.0 - 0.0
28/09:30am 19.1 19.4 16.1 83 1.8 S 9 13 5 7 1021.9 - 0.0
28/09:00am 18.9 19.7 17.2 90 1.0 SSW 9 15 5 8 1021.9 1021.9 13.0
28/08:30am 18.3 19.5 17.3 94 0.6 S 7 9 4 5 1022.0 - 13.0
28/08:00am 17.9 18.6 17.1 95 0.5 SSW 9 11 5 6 1021.6 - 13.0
28/07:30am 17.2 19.5 16.7 97 0.3 CALM 0 0 0 0 1021.4 - 13.0
28/07:18am 17.1 19.3 16.6 97 0.3 CALM 0 0 0 0 1021.2 - 13.0
28/07:14am 16.9 18.7 16.4 97 0.3 SW 2 6 1 3 1021.3 - 13.0
28/07:00am 16.7 17.4 16.2 97 0.3 WSW 7 11 4 6 1021.2 - 12.8
28/06:58am 16.7 17.4 16.2 97 0.3 W 7 11 4 6 1021.1 - 12.6
28/06:31am 16.7 17.1 16.2 97 0.3 SW 9 11 5 6 1020.7 - 11.2
28/06:30am 16.7 17.1 16.2 97 0.3 SW 9 11 5 6 1020.8 - 11.2
28/06:19am 16.6 18.6 16.1 97 0.3 CALM 0 0 0 0 1020.5 - 11.2
28/06:00am 16.5 17.7 16.0 97 0.3 SW 4 7 2 4 1020.1 1020.1 11.2
28/05:41am 16.5 17.4 16.0 97 0.3 WSW 6 7 3 4 1020.1 - 11.2
28/05:30am 16.5 17.7 16.0 97 0.3 SW 4 7 2 4 1020.2 - 11.2
28/05:00am 16.5 17.2 16.0 97 0.3 WSW 7 9 4 5 1020.1 - 11.2
28/04:30am 16.4 17.2 15.9 97 0.3 W 6 7 3 4 1019.6 - 11.0
28/04:00am 16.2 16.9 15.7 97 0.3 WNW 6 7 3 4 1019.7 - 11.0
28/03:30am 16.1 17.9 15.5 96 0.3 CALM 0 0 0 0 1019.4 - 11.0
28/03:00am 16.2 18.0 15.6 96 0.3 CALM 0 0 0 0 1019.4 1019.4 11.0
28/02:30am 16.3 17.1 15.8 97 0.3 SW 6 7 3 4 1019.8 - 11.0
28/02:29am 16.3 17.5 15.8 97 0.3 SSW 4 7 2 4 1019.8 - 11.0
28/02:00am 16.3 17.5 15.8 97 0.3 S 4 6 2 3 1020.0 - 10.0
28/01:59am 16.3 17.5 15.8 97 0.3 S 4 6 2 3 1020.0 - 10.0
28/01:58am 16.3 17.5 15.8 97 0.3 S 4 6 2 3 1020.0 - 9.8
28/01:42am 16.2 16.8 15.7 97 0.3 SSW 7 9 4 5 1020.4 - 9.2
28/01:30am 16.2 16.4 15.7 97 0.3 SW 9 13 5 7 1020.6 - 8.2
28/01:00am 16.1 16.6 15.6 97 0.3 WNW 7 13 4 7 1020.4 - 8.2
28/12:30am 15.9 17.6 15.3 96 0.3 CALM 0 0 0 0 1020.5 - 8.2
28/12:00am 15.8 17.5 15.2 96 0.3 CALM 0 0 0 0 1020.9 1020.9 8.2
 
Date/Time
EST
Tmp

°C
App
Tmp
°C
Dew
Point
°C
Rel
Hum
%
Delta-T

°C
Wind Press
QNH
hPa
Press
MSL
hPa
Rain
since
9 am
mm
Dir
 
Spd
km/h
Gust
km/h
Spd
kts
Gust
kts
27/11:30pm 15.8 15.4 15.3 97 0.3 WSW 11 13 6 7 1021.2 - 8.2
27/11:00pm 15.7 15.3 15.2 97 0.3 W 11 13 6 7 1020.9 - 8.2
27/10:30pm 15.7 16.3 15.2 97 0.3 W 6 9 3 5 1020.5 - 8.2
27/10:00pm 15.8 16.2 15.3 97 0.3 WSW 7 9 4 5 1020.7 - 8.2
27/09:30pm 15.6 16.1 15.0 96 0.3 WNW 6 9 3 5 1021.1 - 8.2
27/09:00pm 15.7 16.6 15.1 96 0.3 W 4 7 2 4 1021.2 1021.2 8.2
27/08:30pm 15.7 16.0 15.1 96 0.3 W 7 11 4 6 1021.4 - 8.0
27/08:00pm 15.8 16.7 15.0 95 0.5 WNW 4 7 2 4 1021.0 - 8.0
27/07:30pm 15.9 15.9 15.3 96 0.3 W 9 13 5 7 1021.1 - 8.0
27/07:00pm 16.1 16.1 15.3 95 0.5 WNW 9 11 5 6 1021.0 - 8.0
27/06:00pm 16.8 16.3 15.8 94 0.6 ESE 13 17 7 9 1020.4 1020.4 7.8
27/05:58pm 16.8 16.3 15.8 94 0.6 ESE 13 17 7 9 1020.3 - 7.8
27/05:42pm 16.2 16.2 15.2 94 0.6 SE 9 13 5 7 1020.1 - 7.6
27/05:30pm 15.9 15.8 14.9 94 0.6 SE 9 13 5 7 1020.2 - 6.4
27/05:00pm 15.9 15.7 14.8 93 0.6 S 9 13 5 7 1020.2 - 5.6
27/04:30pm 15.7 13.6 14.7 94 0.6 SSW 19 26 10 14 1020.0 - 5.2
27/04:06pm 15.5 12.4 14.5 94 0.6 WSW 24 30 13 16 1019.9 - 2.8
27/04:00pm 15.8 11.5 14.5 92 0.7 SW 30 37 16 20 1019.7 - 0.6
27/03:30pm 19.1 14.2 12.4 65 3.7 SW 30 43 16 23 1019.0 - 0.0
27/03:26pm 19.7 15.2 12.5 63 4.0 SW 28 39 15 21 1018.9 - 0.0
27/03:00pm 21.5 23.2 18.5 83 1.9 E 7 9 4 5 1018.6 1018.6 0.0
27/02:30pm 22.0 22.7 18.0 78 2.5 ENE 11 13 6 7 1018.7 - 0.0
27/02:00pm 22.4 23.2 18.2 77 2.6 ENE 11 15 6 8 1018.7 - 0.0
27/01:30pm 22.3 24.0 19.3 83 1.9 NE 9 13 5 7 1018.8 - 0.0
27/01:00pm 21.7 22.1 18.1 80 2.2 NE 13 15 7 8 1019.2 - 0.0
27/12:30pm 22.6 23.2 17.7 74 3.0 NE 11 13 6 7 1019.5 - 0.0
27/12:00pm 22.4 23.0 17.8 75 2.8 NE 11 15 6 8 1019.9 1019.9 0.0
27/11:30am 22.1 22.8 17.9 77 2.6 NE 11 15 6 8 1020.4 - 0.0
27/11:00am 22.0 23.0 17.8 77 2.6 NE 9 13 5 7 1020.6 - 0.0
27/10:30am 21.3 21.2 18.7 85 1.6 NNE 17 20 9 11 1021.0 - 0.0
27/10:17am 21.3 21.5 18.5 84 1.8 NNE 15 17 8 9 1021.0 - 0.0
27/10:00am 21.2 21.4 18.6 85 1.6 NE 15 17 8 9 1021.0 - 0.0
27/09:36am 21.3 21.9 18.7 85 1.6 NE 13 15 7 8 1021.0 - 0.0
27/09:30am 21.1 21.7 18.7 86 1.5 NE 13 15 7 8 1020.9 - 0.0
27/09:00am 21.4 23.0 17.8 80 2.2 SSW 6 11 3 6 1020.8 1020.8 0.0
27/08:30am 22.8 23.6 18.1 75 2.9 WNW 11 19 6 10 1021.1 - 0.0
27/08:00am 20.9 21.8 18.3 85 1.6 NNW 11 17 6 9 1021.1 - 0.0
27/07:30am 19.8 20.7 18.5 92 0.8 N 11 13 6 7 1020.9 - 0.0
27/07:00am 19.0 19.9 18.3 96 0.4 N 11 15 6 8 1020.9 - 0.0
27/06:30am 18.0 18.1 17.4 96 0.4 N 13 15 7 8 1020.6 - 0.0
27/06:00am 17.6 18.2 16.8 95 0.5 N 9 11 5 6 1020.2 1020.2 0.0
27/05:30am 17.6 18.3 17.0 96 0.4 N 9 11 5 6 1020.0 - 0.0
27/05:00am 17.7 18.9 16.9 95 0.5 NNW 6 7 3 4 1019.9 - 0.0
27/04:30am 17.5 18.4 16.7 95 0.5 NNW 7 11 4 6 1019.9 - 0.0
27/04:00am 17.6 17.9 17.0 96 0.4 NNW 11 13 6 7 1019.7 - 0.0
27/03:30am 17.7 20.1 16.9 95 0.5 CALM 0 2 0 1 1019.6 - 0.0
27/03:00am 17.7 19.2 16.7 94 0.6 NW 4 7 2 4 1019.7 1019.7 0.0
27/02:30am 17.8 19.0 16.8 94 0.6 NW 6 9 3 5 1020.0 - 0.0
27/02:00am 17.4 18.2 16.4 94 0.6 N 7 9 4 5 1020.2 - 0.0
27/01:30am 18.1 19.2 17.1 94 0.6 NE 7 9 4 5 1020.3 - 0.0
27/01:00am 17.8 20.1 16.7 93 0.7 CALM 0 0 0 0 1020.5 - 0.0
27/12:30am 18.2 19.2 16.9 92 0.8 NW 7 9 4 5 1020.7 - 0.0
27/12:00am 18.6 19.0 17.3 92 0.8 NNW 11 13 6 7 1020.9 1020.9 0.0
 
Date/Time
EST
Tmp

°C
App
Tmp
°C
Dew
Point
°C
Rel
Hum
%
Delta-T

°C
Wind Press
QNH
hPa
Press
MSL
hPa
Rain
since
9 am
mm
Dir
 
Spd
km/h
Gust
km/h
Spd
kts
Gust
kts
26/11:30pm 19.2 20.3 17.9 92 0.8 N 9 15 5 8 1021.2 - 0.0
26/11:00pm 19.2 20.7 18.0 93 0.7 N 7 9 4 5 1021.3 - 0.0
26/10:30pm 19.1 20.7 17.9 93 0.7 WNW 6 7 3 4 1021.3 - 0.0
26/10:00pm 19.3 20.5 18.3 94 0.6 W 9 11 5 6 1021.1 - 0.0
26/09:30pm 19.4 19.4 18.2 93 0.7 NNW 15 20 8 11 1021.0 - 0.0
26/09:00pm 18.8 19.9 18.0 95 0.5 N 9 11 5 6 1020.8 1020.8 0.0
26/08:30pm 19.4 20.4 18.6 95 0.5 NNW 11 15 6 8 1020.7 - 0.0
26/08:00pm 19.3 20.2 18.5 95 0.5 NNW 11 15 6 8 1020.4 - 0.0
26/07:30pm 19.6 21.2 18.3 92 0.8 N 7 9 4 5 1020.3 - 0.0
26/07:00pm 20.7 21.6 19.2 91 0.9 N 13 17 7 9 1019.7 - 0.0
26/06:30pm 21.0 22.8 19.6 92 0.9 NE 9 11 5 6 1019.3 - 0.0
26/06:00pm 20.4 21.9 18.9 91 0.9 NE 9 13 5 7 1018.9 1018.9 0.0
26/05:30pm 20.8 22.2 18.7 88 1.3 E 9 13 5 7 1018.5 - 0.0

Latest Capital City Observations: Canberra | Sydney | Melbourne | Brisbane | Adelaide | Perth | Hobart | Darwin

Other Formats:

Comma delimited format used in spreadsheet applications
http://www.bom.gov.au/fwo/IDQ60901/IDQ60901.94569.axf

JavaScript Object Notation format (JSON) in row-major order
http://www.bom.gov.au/fwo/IDQ60901/IDQ60901.94569.json